createdAt,value
2023-05-24T00:00:13.095Z,1.85
2023-05-24T00:02:42.178Z,2.20
2023-05-24T00:05:10.603Z,2.13
2023-05-24T00:07:38.296Z,1.98
2023-05-24T00:10:06.227Z,2.15
2023-05-24T00:12:33.288Z,2.15
2023-05-24T00:15:00.056Z,1.95
2023-05-24T00:17:27.529Z,2.22
2023-05-24T00:19:54.239Z,2.95
2023-05-24T00:22:21.134Z,2.40
2023-05-24T00:24:48.652Z,2.17
2023-05-24T00:27:15.804Z,3.08
2023-05-24T00:29:42.540Z,2.22
2023-05-24T00:32:09.110Z,2.08
2023-05-24T00:34:36.933Z,2.35
2023-05-24T00:37:04.400Z,2.30
2023-05-24T00:39:30.889Z,2.17
2023-05-24T00:41:57.397Z,2.50
2023-05-24T00:44:23.893Z,2.20
2023-05-24T00:46:50.450Z,2.33
2023-05-24T00:49:17.473Z,2.22
2023-05-24T00:51:45.362Z,2.58
2023-05-24T00:54:14.999Z,2.30
2023-05-24T00:56:43.220Z,2.72
2023-05-24T00:59:09.826Z,1.92
2023-05-24T01:01:38.240Z,2.30
2023-05-24T01:04:05.637Z,2.53
2023-05-24T01:06:46.810Z,2.60
2023-05-24T01:09:25.898Z,2.20
2023-05-24T01:12:07.765Z,2.55
2023-05-24T01:15:20.755Z,2.55
2023-05-24T01:17:56.005Z,2.33
2023-05-24T01:20:24.056Z,2.75
2023-05-24T01:23:13.878Z,2.65
2023-05-24T01:26:14.510Z,2.33
2023-05-24T01:28:43.151Z,2.35
2023-05-24T01:31:12.391Z,2.85
2023-05-24T01:33:43.053Z,3.08
2023-05-24T01:36:09.917Z,2.55
2023-05-24T01:38:37.652Z,2.55
2023-05-24T01:41:16.304Z,2.67
2023-05-24T01:44:01.909Z,2.80
2023-05-24T01:46:37.355Z,3.15
2023-05-24T01:49:22.673Z,2.92
2023-05-24T01:51:53.932Z,2.60
2023-05-24T01:54:23.943Z,3.03
2023-05-24T01:56:53.830Z,3.28
2023-05-24T01:59:22.580Z,2.72
2023-05-24T02:01:49.471Z,2.15
2023-05-24T02:04:17.824Z,3.08
2023-05-24T02:06:44.725Z,2.90
2023-05-24T02:09:11.399Z,2.88
2023-05-24T02:11:38.064Z,3.00
2023-05-24T02:14:04.538Z,3.10
2023-05-24T02:16:31.129Z,3.22
2023-05-24T02:18:57.947Z,3.25
2023-05-24T02:21:25.314Z,3.67
2023-05-24T02:23:51.777Z,3.28
2023-05-24T02:26:21.247Z,2.78
2023-05-24T02:28:48.275Z,3.15
2023-05-24T02:31:15.353Z,2.92
2023-05-24T02:33:41.957Z,3.35
2023-05-24T02:36:08.498Z,2.90
2023-05-24T02:38:35.028Z,2.63
2023-05-24T02:41:01.822Z,4.22
2023-05-24T02:43:28.346Z,3.45
2023-05-24T02:45:55.305Z,3.00
2023-05-24T02:48:21.821Z,2.72
2023-05-24T02:50:48.386Z,4.30
2023-05-24T02:53:14.947Z,2.83
2023-05-24T02:55:43.942Z,2.42
2023-05-24T02:58:12.132Z,3.30
2023-05-24T03:00:38.728Z,3.35
2023-05-24T03:03:05.950Z,3.30
2023-05-24T03:05:33.041Z,3.13
2023-05-24T03:07:59.573Z,2.65
2023-05-24T03:10:26.104Z,2.97
2023-05-24T03:12:52.675Z,3.22
2023-05-24T03:15:19.696Z,3.15
2023-05-24T03:17:46.894Z,3.25
2023-05-24T03:20:13.492Z,3.05
2023-05-24T03:22:40.052Z,3.25
2023-05-24T03:25:08.751Z,2.95
2023-05-24T03:27:36.579Z,2.85
2023-05-24T03:30:03.743Z,3.08
2023-05-24T03:32:35.636Z,3.67
2023-05-24T03:35:02.663Z,3.15
2023-05-24T03:37:29.300Z,3.38
2023-05-24T03:39:55.894Z,3.25
2023-05-24T03:42:45.280Z,3.33
2023-05-24T03:45:12.567Z,2.95
2023-05-24T03:47:39.126Z,3.75
2023-05-24T03:50:06.158Z,3.28
2023-05-24T03:52:32.735Z,3.45
2023-05-24T03:54:59.368Z,3.28
2023-05-24T03:57:26.242Z,3.50
2023-05-24T03:59:52.838Z,3.10
2023-05-24T04:02:19.396Z,3.10
2023-05-24T04:04:45.977Z,3.20
2023-05-24T04:07:15.422Z,2.80
2023-05-24T04:09:42.230Z,2.80
2023-05-24T04:12:08.898Z,3.72
2023-05-24T04:14:35.438Z,3.00
2023-05-24T04:17:04.699Z,3.20
2023-05-24T04:19:32.020Z,3.53
2023-05-24T04:21:59.544Z,3.42
2023-05-24T04:24:26.123Z,3.60
2023-05-24T04:26:52.661Z,3.17
2023-05-24T04:29:19.824Z,3.28
2023-05-24T04:31:48.917Z,3.67
2023-05-24T04:34:15.620Z,3.50
2023-05-24T04:36:42.161Z,3.42
2023-05-24T04:39:09.911Z,4.18
2023-05-24T04:41:37.184Z,3.75
2023-05-24T04:44:03.747Z,4.10
2023-05-24T04:46:31.411Z,3.47
2023-05-24T04:48:58.037Z,3.92
2023-05-24T04:51:24.534Z,4.15
2023-05-24T04:53:50.980Z,3.72
2023-05-24T04:56:17.575Z,4.05
2023-05-24T04:58:44.100Z,4.10
2023-05-24T05:01:10.759Z,3.55
2023-05-24T05:03:37.358Z,3.53
2023-05-24T05:06:03.986Z,4.28
2023-05-24T05:08:31.114Z,3.60
2023-05-24T05:10:57.806Z,5.07
2023-05-24T05:13:24.354Z,4.05
2023-05-24T05:15:51.640Z,4.28
2023-05-24T05:18:18.292Z,3.90
2023-05-24T05:20:45.160Z,3.65
2023-05-24T05:23:11.910Z,4.20
2023-05-24T05:25:38.351Z,3.88
2023-05-24T05:28:04.881Z,3.70
2023-05-24T05:30:31.381Z,4.00
2023-05-24T05:32:58.013Z,3.72
2023-05-24T05:35:24.769Z,3.75
2023-05-24T05:37:51.281Z,3.40
2023-05-24T05:40:17.864Z,3.30
2023-05-24T05:42:44.409Z,3.58
2023-05-24T05:45:11.439Z,3.55
2023-05-24T05:47:38.123Z,3.35
2023-05-24T05:50:04.962Z,3.40
2023-05-24T05:52:31.536Z,3.70
2023-05-24T05:54:59.223Z,3.67
2023-05-24T05:57:25.726Z,3.50
2023-05-24T05:59:52.350Z,3.63
2023-05-24T06:02:19.255Z,4.22
2023-05-24T06:04:46.957Z,3.83
2023-05-24T06:07:13.780Z,3.78
2023-05-24T06:09:40.295Z,3.47
2023-05-24T06:12:06.831Z,3.55
2023-05-24T06:14:34.370Z,3.90
2023-05-24T06:17:00.864Z,3.47
2023-05-24T06:19:27.472Z,3.72
2023-05-24T06:21:53.999Z,3.55
2023-05-24T06:24:21.263Z,3.28
2023-05-24T06:26:48.828Z,3.85
2023-05-24T06:29:15.485Z,3.03
2023-05-24T06:31:43.342Z,3.67
2023-05-24T06:34:10.049Z,3.70
2023-05-24T06:36:41.330Z,3.20
2023-05-24T06:39:10.972Z,3.22
2023-05-24T06:41:38.963Z,3.67
2023-05-24T06:44:05.671Z,3.08
2023-05-24T06:46:32.840Z,3.38
2023-05-24T06:48:59.532Z,3.20
2023-05-24T06:51:26.426Z,3.08
2023-05-24T06:53:53.131Z,3.20
2023-05-24T06:56:19.717Z,3.58
2023-05-24T06:58:46.704Z,3.25
2023-05-24T07:01:14.527Z,3.10
2023-05-24T07:03:41.384Z,3.15
2023-05-24T07:06:10.032Z,3.50
2023-05-24T07:08:36.735Z,2.92
2023-05-24T07:11:03.573Z,3.25
2023-05-24T07:13:30.232Z,3.63
2023-05-24T07:15:59.935Z,3.30
2023-05-24T07:18:26.513Z,3.17
2023-05-24T07:20:53.527Z,2.75
2023-05-24T07:23:20.133Z,2.88
2023-05-24T07:25:46.584Z,3.03
2023-05-24T07:28:15.273Z,3.20
2023-05-24T07:30:41.882Z,3.45
2023-05-24T07:33:08.604Z,3.10
2023-05-24T07:35:35.150Z,2.83
2023-05-24T07:38:01.682Z,3.33
2023-05-24T07:40:28.283Z,3.42
2023-05-24T07:42:54.821Z,2.80
2023-05-24T07:45:21.462Z,3.55
2023-05-24T07:47:48.064Z,3.33
2023-05-24T07:50:15.000Z,3.20
2023-05-24T07:52:41.590Z,3.10
2023-05-24T07:55:08.562Z,3.20
2023-05-24T07:57:35.053Z,3.55
2023-05-24T08:00:09.973Z,3.28
2023-05-24T08:02:38.226Z,3.17
2023-05-24T08:05:05.412Z,2.92
2023-05-24T08:07:31.930Z,3.22
2023-05-24T08:09:58.427Z,3.30
2023-05-24T08:12:25.924Z,3.55
2023-05-24T08:14:52.549Z,3.47
2023-05-24T08:17:19.070Z,3.55
2023-05-24T08:19:45.581Z,3.33
2023-05-24T08:22:12.671Z,2.83
2023-05-24T08:24:39.253Z,3.00
2023-05-24T08:27:05.944Z,3.20
2023-05-24T08:29:32.497Z,2.92
2023-05-24T08:32:00.999Z,2.78
2023-05-24T08:34:28.392Z,3.03
2023-05-24T08:36:55.101Z,3.13
2023-05-24T08:39:21.732Z,3.22
2023-05-24T08:42:00.879Z,3.17
2023-05-24T08:44:29.922Z,3.35
2023-05-24T08:46:58.615Z,3.13
2023-05-24T08:49:25.817Z,3.60
2023-05-24T08:51:52.925Z,3.10
2023-05-24T08:54:20.492Z,3.03
2023-05-24T08:56:48.323Z,3.00
2023-05-24T08:59:15.676Z,3.25
2023-05-24T09:01:43.096Z,3.17
2023-05-24T09:04:10.135Z,3.15
2023-05-24T09:06:37.061Z,3.20
2023-05-24T09:09:04.653Z,3.45
2023-05-24T09:11:32.133Z,2.45
2023-05-24T09:14:00.152Z,3.40
2023-05-24T09:16:26.869Z,3.03
2023-05-24T09:18:53.362Z,3.22
2023-05-24T09:21:19.852Z,3.22
2023-05-24T09:23:47.000Z,3.30
2023-05-24T09:26:13.502Z,2.80
2023-05-24T09:28:41.691Z,3.42
2023-05-24T09:31:08.495Z,2.95
2023-05-24T09:33:35.810Z,3.03
2023-05-24T09:36:04.839Z,2.97
2023-05-24T09:38:31.360Z,2.97
2023-05-24T09:41:02.474Z,3.25
2023-05-24T09:43:33.031Z,3.58
2023-05-24T09:46:01.770Z,3.45
2023-05-24T09:48:28.428Z,3.00
2023-05-24T09:51:06.094Z,3.60
2023-05-24T09:53:36.573Z,3.75
2023-05-24T09:56:09.614Z,2.95
2023-05-24T09:58:36.766Z,3.33
2023-05-24T10:01:10.750Z,3.63
2023-05-24T10:03:38.168Z,3.17
2023-05-24T10:06:07.944Z,3.15
2023-05-24T10:08:35.938Z,3.20
2023-05-24T10:11:06.405Z,3.45
2023-05-24T10:13:35.727Z,3.35
2023-05-24T10:16:05.824Z,3.35
2023-05-24T10:18:32.601Z,3.55
2023-05-24T10:21:01.670Z,3.22
2023-05-24T10:23:32.528Z,2.97
2023-05-24T10:26:11.327Z,2.90
2023-05-24T10:28:46.133Z,3.10
2023-05-24T10:31:17.291Z,2.85
2023-05-24T10:33:48.287Z,2.90
2023-05-24T10:36:16.187Z,3.22
2023-05-24T10:38:43.624Z,2.70
2023-05-24T10:41:13.004Z,2.45
2023-05-24T10:43:39.829Z,2.97
2023-05-24T10:46:09.551Z,3.00
2023-05-24T10:48:40.554Z,3.10
2023-05-24T10:51:39.500Z,3.17
2023-05-24T10:54:19.683Z,2.80
2023-05-24T10:56:50.618Z,2.80
2023-05-24T10:59:39.613Z,5.50
2023-05-24T11:02:14.085Z,3.13
2023-05-24T11:04:49.059Z,2.70
2023-05-24T11:07:17.063Z,2.70
2023-05-24T11:09:48.890Z,2.30
2023-05-24T11:12:20.689Z,2.65
2023-05-24T11:14:52.461Z,2.83
2023-05-24T11:17:22.158Z,2.83
2023-05-24T11:19:54.396Z,2.75
2023-05-24T11:22:22.918Z,2.97
2023-05-24T11:24:50.061Z,2.50
2023-05-24T11:27:16.592Z,3.00
2023-05-24T11:29:44.879Z,2.60
2023-05-24T11:32:16.865Z,2.78
2023-05-24T11:34:46.645Z,2.65
2023-05-24T11:37:16.071Z,2.67
2023-05-24T11:39:44.316Z,2.38
2023-05-24T11:42:10.776Z,2.92
2023-05-24T11:44:39.800Z,2.70
2023-05-24T11:47:08.168Z,2.55
2023-05-24T11:49:35.056Z,2.42
2023-05-24T11:52:02.604Z,2.83
2023-05-24T11:54:30.101Z,2.72
2023-05-24T11:56:56.851Z,2.60
2023-05-24T11:59:26.630Z,2.65
2023-05-24T12:02:04.704Z,2.72
2023-05-24T12:04:33.051Z,4.43
2023-05-24T12:06:59.699Z,2.83
2023-05-24T12:09:27.627Z,2.72
2023-05-24T12:11:54.930Z,2.70
2023-05-24T12:14:28.728Z,2.88
2023-05-24T12:16:56.932Z,3.13
2023-05-24T12:19:33.109Z,3.05
2023-05-24T12:22:01.416Z,2.97
2023-05-24T12:24:28.391Z,2.97
2023-05-24T12:27:03.346Z,2.80
2023-05-24T12:29:41.270Z,3.08
2023-05-24T12:32:13.286Z,2.63
2023-05-24T12:34:42.478Z,3.10
2023-05-24T12:37:09.778Z,2.72
2023-05-24T12:39:36.735Z,2.85
2023-05-24T12:42:04.226Z,2.95
2023-05-24T12:44:33.989Z,3.20
2023-05-24T12:47:02.103Z,4.35
2023-05-24T12:49:28.687Z,3.28
2023-05-24T12:51:56.838Z,3.28
2023-05-24T12:54:25.721Z,2.78
2023-05-24T12:56:55.852Z,2.92
2023-05-24T12:59:23.591Z,3.30
2023-05-24T13:01:53.513Z,3.38
2023-05-24T13:04:22.436Z,3.10
2023-05-24T13:06:49.224Z,2.85
2023-05-24T13:09:19.366Z,3.47
2023-05-24T13:11:46.424Z,2.80
2023-05-24T13:14:13.046Z,3.22
2023-05-24T13:16:39.698Z,3.00
2023-05-24T13:19:06.399Z,3.38
2023-05-24T13:21:32.878Z,3.47
2023-05-24T13:23:59.362Z,3.25
2023-05-24T13:26:26.042Z,2.70
2023-05-24T13:29:15.180Z,2.92
2023-05-24T13:31:40.532Z,2.85
2023-05-24T13:34:08.928Z,3.20
2023-05-24T13:36:35.751Z,3.38
2023-05-24T13:39:14.937Z,3.10
2023-05-24T13:41:43.564Z,2.97
2023-05-24T13:44:10.725Z,3.22
2023-05-24T13:46:37.762Z,3.00
2023-05-24T13:49:05.445Z,2.83
2023-05-24T13:51:32.925Z,3.13
2023-05-24T13:53:59.623Z,2.90
2023-05-24T13:56:32.345Z,3.25
2023-05-24T13:58:59.279Z,2.78
2023-05-24T14:01:25.759Z,3.10
2023-05-24T14:03:52.477Z,2.95
2023-05-24T14:06:19.925Z,3.00
2023-05-24T14:08:46.602Z,2.65
2023-05-24T14:11:14.528Z,3.17
2023-05-24T14:16:10.962Z,2.80
2023-05-24T14:18:37.818Z,3.28
2023-05-24T14:21:04.477Z,2.75
2023-05-24T14:23:31.835Z,3.20
2023-05-24T14:26:01.892Z,2.92
2023-05-24T14:28:28.513Z,2.85
2023-05-24T14:30:54.985Z,2.88
2023-05-24T14:33:21.452Z,3.08
2023-05-24T14:35:48.121Z,2.90
2023-05-24T14:38:14.618Z,2.90
2023-05-24T14:40:42.186Z,2.50
2023-05-24T14:43:10.804Z,3.10
2023-05-24T14:45:42.053Z,2.80
2023-05-24T14:48:13.291Z,2.97
2023-05-24T14:50:41.124Z,2.47
2023-05-24T14:53:12.415Z,2.53
2023-05-24T14:58:14.025Z,2.83
2023-05-24T15:00:43.048Z,2.70
2023-05-24T15:03:12.423Z,2.40
2023-05-24T15:05:39.902Z,2.65
2023-05-24T15:08:07.791Z,2.67
2023-05-24T15:10:34.457Z,2.45
2023-05-24T15:13:01.518Z,6.50
2023-05-24T15:15:28.717Z,4.07
2023-05-24T15:17:55.335Z,3.25
2023-05-24T15:20:21.981Z,3.80
2023-05-24T15:22:48.601Z,4.97
2023-05-24T15:25:15.132Z,3.15
2023-05-24T15:27:41.629Z,3.55
2023-05-24T15:30:08.289Z,3.22
2023-05-24T15:32:34.851Z,3.00
2023-05-24T15:35:01.448Z,2.78
2023-05-24T15:37:28.225Z,3.17
2023-05-24T15:39:54.766Z,2.85
2023-05-24T15:42:25.075Z,2.97
2023-05-24T15:44:51.723Z,2.83
2023-05-24T15:47:21.261Z,2.95
2023-05-24T15:49:49.684Z,2.85
2023-05-24T15:52:16.406Z,2.70
2023-05-24T15:54:42.992Z,3.00
2023-05-24T15:57:09.483Z,3.05
2023-05-24T15:59:38.417Z,2.75
2023-05-24T16:02:06.187Z,2.80
2023-05-24T16:04:32.817Z,2.95
2023-05-24T16:06:59.345Z,2.60
2023-05-24T16:09:25.938Z,2.75
2023-05-24T16:11:52.484Z,2.60
2023-05-24T16:14:19.086Z,2.35
2023-05-24T16:16:45.665Z,2.70
2023-05-24T16:19:12.287Z,2.53
2023-05-24T16:21:39.114Z,2.80
2023-05-24T16:24:06.157Z,3.08
2023-05-24T16:26:32.845Z,2.80
2023-05-24T16:28:59.720Z,2.88
2023-05-24T16:31:26.435Z,2.80
2023-05-24T16:33:52.967Z,3.08
2023-05-24T16:36:20.296Z,3.25
2023-05-24T16:38:46.833Z,3.10
2023-05-24T16:41:13.544Z,2.85
2023-05-24T16:43:40.022Z,3.03
2023-05-24T16:46:06.585Z,2.80
2023-05-24T16:48:33.220Z,3.53
2023-05-24T16:51:00.711Z,3.30
2023-05-24T16:53:27.599Z,3.10
2023-05-24T16:55:55.849Z,2.90
2023-05-24T16:58:28.602Z,2.58
2023-05-24T17:00:55.524Z,2.85
2023-05-24T17:03:27.905Z,2.65
2023-05-24T17:05:56.792Z,2.70
2023-05-24T17:08:25.757Z,2.67
2023-05-24T17:10:56.121Z,2.92
2023-05-24T17:13:23.724Z,3.60
2023-05-24T17:15:53.580Z,2.83
2023-05-24T17:18:27.486Z,2.60
2023-05-24T17:20:56.591Z,3.08
2023-05-24T17:23:24.948Z,2.80
2023-05-24T17:25:52.365Z,2.58
2023-05-24T17:28:19.025Z,3.13
2023-05-24T17:30:45.624Z,3.03
2023-05-24T17:33:12.306Z,2.92
2023-05-24T17:35:38.877Z,2.78
2023-05-24T17:38:05.723Z,2.72
2023-05-24T17:40:32.255Z,2.70
2023-05-24T17:42:58.720Z,3.10
2023-05-24T17:45:25.247Z,2.80
2023-05-24T17:47:51.788Z,2.78
2023-05-24T17:50:18.313Z,2.92
2023-05-24T17:52:44.860Z,2.78
2023-05-24T17:55:11.406Z,2.75
2023-05-24T17:57:37.897Z,2.53
2023-05-24T18:00:04.761Z,2.38
2023-05-24T18:02:31.307Z,2.53
2023-05-24T18:04:57.984Z,3.15
2023-05-24T18:07:24.552Z,2.90
2023-05-24T18:09:51.481Z,2.65
2023-05-24T18:12:18.496Z,2.80
2023-05-24T18:14:45.118Z,2.88
2023-05-24T18:17:11.728Z,2.67
2023-05-24T18:19:38.272Z,2.55
2023-05-24T18:22:04.796Z,2.55
2023-05-24T18:24:31.606Z,2.30
2023-05-24T18:26:58.189Z,2.55
2023-05-24T18:29:24.752Z,2.65
2023-05-24T18:31:51.384Z,2.75
2023-05-24T18:34:17.902Z,2.78
2023-05-24T18:36:44.424Z,2.70
2023-05-24T18:39:11.153Z,2.58
2023-05-24T18:41:37.673Z,2.75
2023-05-24T18:44:04.150Z,3.08
2023-05-24T18:46:30.845Z,2.80
2023-05-24T18:49:00.271Z,2.92
2023-05-24T18:51:26.922Z,3.40
2023-05-24T18:53:53.426Z,2.80
2023-05-24T18:56:19.929Z,2.50
2023-05-24T18:58:49.635Z,2.80
2023-05-24T19:01:16.222Z,2.75
2023-05-24T19:03:42.784Z,3.22
2023-05-24T19:06:09.327Z,2.50
2023-05-24T19:08:36.001Z,3.25
2023-05-24T19:11:02.472Z,2.92
2023-05-24T19:13:28.960Z,3.08
2023-05-24T19:15:56.486Z,3.08
2023-05-24T19:18:23.071Z,2.92
2023-05-24T19:20:49.809Z,2.80
2023-05-24T19:23:16.398Z,2.75
2023-05-24T19:25:43.934Z,2.67
2023-05-24T19:28:11.380Z,2.90
2023-05-24T19:30:37.953Z,3.10
2023-05-24T19:33:04.559Z,2.83
2023-05-24T19:35:31.188Z,3.00
2023-05-24T19:37:57.756Z,2.75
2023-05-24T19:40:24.348Z,3.05
2023-05-24T19:42:51.001Z,2.88
2023-05-24T19:45:17.661Z,3.03
2023-05-24T19:47:45.291Z,2.95
2023-05-24T19:50:12.367Z,3.22
2023-05-24T19:52:38.909Z,3.15
2023-05-24T19:55:06.119Z,2.90
2023-05-24T19:57:32.608Z,2.90
2023-05-24T20:00:00.763Z,3.03
2023-05-24T20:02:27.380Z,3.17
2023-05-24T20:04:53.989Z,3.35
2023-05-24T20:07:20.531Z,2.65
2023-05-24T20:09:47.068Z,4.07
2023-05-24T20:12:14.492Z,3.50
2023-05-24T20:14:41.799Z,3.53
2023-05-24T20:17:08.390Z,3.60
2023-05-24T20:19:34.971Z,3.10
2023-05-24T20:22:01.477Z,3.10
2023-05-24T20:24:28.039Z,3.22
2023-05-24T20:26:54.628Z,3.15
2023-05-24T20:29:21.245Z,3.67
2023-05-24T20:31:47.871Z,2.90
2023-05-24T20:34:14.448Z,3.03
2023-05-24T20:36:43.357Z,3.35
2023-05-24T20:39:10.282Z,3.33
2023-05-24T20:41:36.802Z,3.05
2023-05-24T20:44:03.388Z,3.03
2023-05-24T20:46:30.325Z,3.20
2023-05-24T20:48:57.358Z,3.08
2023-05-24T20:51:24.626Z,3.15
2023-05-24T20:53:53.065Z,3.38
2023-05-24T20:56:20.337Z,3.97
2023-05-24T20:58:47.167Z,3.10
2023-05-24T21:01:13.785Z,2.88
2023-05-24T21:03:40.660Z,3.00
2023-05-24T21:06:07.334Z,3.53
2023-05-24T21:08:33.793Z,3.60
2023-05-24T21:11:00.528Z,2.97
2023-05-24T21:13:28.218Z,3.47
2023-05-24T21:15:54.717Z,3.55
2023-05-24T21:18:21.296Z,3.67
2023-05-24T21:20:47.960Z,3.53
2023-05-24T21:23:14.480Z,3.58
2023-05-24T21:25:41.104Z,2.80
2023-05-24T21:28:08.250Z,3.30
2023-05-24T21:30:34.805Z,2.90
2023-05-24T21:33:01.342Z,3.45
2023-05-24T21:35:28.023Z,3.40
2023-05-24T21:37:54.575Z,3.15
2023-05-24T21:40:21.131Z,3.08
2023-05-24T21:42:47.726Z,3.30
2023-05-24T21:45:14.254Z,3.80
2023-05-24T21:47:41.900Z,3.75
2023-05-24T21:50:08.831Z,4.10
2023-05-24T21:52:35.400Z,3.50
2023-05-24T21:55:01.864Z,3.40
2023-05-24T21:57:28.662Z,3.53
2023-05-24T21:59:55.257Z,3.63
2023-05-24T22:02:21.845Z,3.70
2023-05-24T22:04:48.619Z,3.63
2023-05-24T22:07:15.318Z,4.38
2023-05-24T22:09:41.867Z,3.78
2023-05-24T22:12:08.541Z,3.67
2023-05-24T22:14:35.049Z,3.70
2023-05-24T22:17:01.658Z,4.25
2023-05-24T22:19:39.889Z,3.65
2023-05-24T22:22:08.014Z,3.60
2023-05-24T22:24:34.593Z,4.07
2023-05-24T22:27:02.441Z,3.47
2023-05-24T22:29:29.064Z,4.25
2023-05-24T22:31:55.707Z,3.65
2023-05-24T22:34:27.367Z,3.70
2023-05-24T22:36:54.411Z,4.78
2023-05-24T22:39:21.520Z,4.10
2023-05-24T22:41:47.984Z,3.78
2023-05-24T22:44:14.602Z,4.18
2023-05-24T22:46:41.238Z,4.00
2023-05-24T22:49:07.746Z,4.15
2023-05-24T22:51:34.225Z,3.95
2023-05-24T22:54:00.730Z,4.18
2023-05-24T22:56:27.473Z,4.00
2023-05-24T22:58:54.011Z,3.65
2023-05-24T23:01:20.503Z,4.47
2023-05-24T23:03:47.003Z,3.55
2023-05-24T23:06:15.559Z,4.28
2023-05-24T23:08:43.137Z,4.35
2023-05-24T23:11:13.139Z,4.30
2023-05-24T23:13:41.986Z,3.42
2023-05-24T23:16:08.631Z,3.88
2023-05-24T23:18:37.399Z,4.13
2023-05-24T23:21:04.387Z,4.50
2023-05-24T23:23:30.950Z,4.32
2023-05-24T23:25:57.479Z,3.63
2023-05-24T23:28:24.161Z,4.45
2023-05-24T23:30:51.034Z,4.25
2023-05-24T23:33:17.569Z,4.10
2023-05-24T23:35:45.058Z,3.80
2023-05-24T23:38:13.059Z,4.32
2023-05-24T23:40:39.924Z,3.80
2023-05-24T23:43:06.626Z,4.28
2023-05-24T23:45:33.197Z,4.40
2023-05-24T23:47:59.851Z,4.10
2023-05-24T23:50:27.341Z,3.92
2023-05-24T23:52:54.726Z,4.00
2023-05-24T23:55:24.371Z,4.28
2023-05-24T23:57:52.157Z,4.28
